Portada
METAR-TAF:

METAR-TAF

Aeroports :

Islamabad, Pakistan

latitud: 33-32-57N, longitud: 072-49-32E, altitud: 537 m

Observació

L'informe es va fer fa 37 minuts, a les 12:30 UTC
Vent 4 kt del Oest
Temperatura 14°C
Humitat 51%
Pressió 1017 hPa
Visibilitat: 3500 m
calitja

METAR: OPIS 021230Z 27004KT 3500 HZ NSC 14/04 Q1017 NOSIG

Hora: 18:07 (13:07 UTC)

Pronòstic

L'informe es va fer fa 9 hores i 52 minuts, a les 03:15 UTC
Pronòstic vàlid del 02 a les 06 UTC al 03 a les 12 UTC
Vent 10 kt del Oest/Nord-Oest
Visibilitat: 5000 m
calitja
Temporalment
l' 02 a les 09 UTC al 02 a les 12 UTC
Vent 6 kt del Est/Sud-Est
Temporalment
l' 02 a les 22 UTC al 03 a les 04 UTC
Visibilitat: 2500 m
fum
Temporalment
l' 03 a les 09 UTC al 03 a les 12 UTC
Vent 8 kt del Est/Sud-Est

TAF: OPIS 020315Z 0206/0312 29010KT 5000 HZ NSC TEMPO 0209/0212 11006KT TEMPO 0222/0304 2500 FU TEMPO 0309/0312 11008KT

Observacions i pronòstics meteorològics de més de 4000 aeroports (METAR i TAF).

Les estacions disponibles són els punts grocs i vermells al mapa.

Posi el ratolí al punt desitjat per veure el nom de l'estació.

Feu clic per veure les observacions i els pronòstics meteorològics.

Per canviar el mapa: feu clic els botons verds amb una creu de color negre per apropar; al botó verd amb un guió per allunyar la imatge; o en les fletxes verdes per a mapes adjacents.


METAR-TAF: